If you wish to contribute or participate in the discussions about articles you are invited to join SKYbrary as a registered user

 Actions

Abidjan/Port Bouet Airport

From SKYbrary Wiki

DIAP
Airport
ICAO: DIAP – IATA: ABJ
Summary
Name Abidjan/Port Bouet Airport
Region Africa
Territory Ivory Coast CI.gif
Location Port Bouet, Abidjan
Serving Abidjan
Coordinates 5° 15' 40.99", -3° 55' 34.6598"
Runways
Designator Length Width Surface ROPS
3/21 3000 m9,842.52 ft 50 m164.042 ft ASP yes/yes


METAR
Observation DIAP 251700Z 23012KT 9999 FEW012 29/24 Q1008 NOSIG
Station Abidjan
Date/Time 25 February 2018 17:00:00
Wind direction 230°
Wind speed 12 kts
Lowest cloud amount few clouds
Temperature 29°C
Dew point 24°C
Humidity 74%
QNH 1008 hPa
Weather condition n/a

Abidjan/Felix Houphoet Boigny Airport

ICAO: DIAP IATA: ABJ

Description

International airport serving the capital of the Ivory Coast.

Climatology

Tropical Monsoon climate (Köppen climate classification Am) - monthly mean temperatures above 18°C291.15 K
64.4 °F
524.07 °R
in every month of the year and features wet and dry seasons. A tropical monsoon climate typically features less pronounced dry seasons than a tropical savanna climate and see less variance in temperatures during the course of the year. The driest month nearly always occurs at or soon after the "winter" solstice.

Maps

Terrain

Loading map...

Airport Layout

Loading map...


Accidents & Serious Incidents at or in vicinity of DIAP

None on SKYbrary